METAR AND TAF INFORMATION
METAR FOR EDFH
ADDS - METARS form results

(1811 UTC 21 March 2019)
Data provider http://aviationweather.gov/metar/data/
 
METAR text: EDFH 211750Z 08003KT 030V120 CAVOK 10/M01 Q1031
Conditions at: EDFH (HAHN , DE) observed 1750 UTC 21 March 2019
Temperature: 10.0°C (50°F)
Dewpoint: -1.0°C (30°F) [RH = 46%]
Pressure (altimeter): 30.44 inches Hg (1031.0 mb)
Winds: from the E (80 degrees) at 3 MPH (3 knots; 1.5 m/s)
Visibility: 6 or more miles (10+ km)
Ceiling: ceiling and visibility are OK
Clouds: unknown
Weather: no significant weather observed at this time

METAR text: EDFH 211720Z 08004KT 050V130 CAVOK 12/M02 Q1031
Conditions at: EDFH (HAHN , DE) observed 1720 UTC 21 March 2019
Temperature: 12.0°C (54°F)
Dewpoint: -2.0°C (28°F) [RH = 38%]
Pressure (altimeter): 30.44 inches Hg (1031.0 mb)
Winds: from the E (80 degrees) at 5 MPH (4 knots; 2.1 m/s)
Visibility: 6 or more miles (10+ km)
Ceiling: ceiling and visibility are OK
Clouds: unknown
Weather: no significant weather observed at this time

Forecast for: EDFH (HAHN , DE)
Text: TAF EDFH 211700Z 2118/2218 08005KT CAVOK
Forecast period: 1800 UTC 21 March 2019 to 1600 UTC 22 March 2019
Forecast type: FROM: standard forecast or significant change
Winds: from the E (80 degrees) at 6 MPH (5 knots; 2.6 m/s)
Visibility: 6 or more miles 10+ km)
Ceiling: unknown
Clouds: missing
Weather: NSW  (no significant weather)
Text: BECMG 2216/2218 17005KT
Forecast period: 1600 to 1800 UTC 22 March 2019
Forecast type: BECOMING: Conditions expected to become as follows by 1800 UTC 22 March 2019
Winds: from the S (170 degrees) at 6 MPH (5 knots; 2.6 m/s)
Visibility: 6 or more miles 10+ km)
Ceiling: unknown
Clouds: missing
Weather: NSW  (no significant weather)

 AIRPORT MAP

 RUNWAY INFORMATION
Runway 03 Runway length 12467 ft Runway width 148 ft
Runway elevation 1649 ft Runway displaced threshold 3461 ft Runway heading 32
Runway 21 Runway length 12467 ft Runway width 148 ft
Runway elevation 1595 ft Runway displaced threshold 984 ft Runway heading 212

 AIRPORT FREQUENCIES
Type AFIS Name LANGEN INF Frequency 123.525 MHZ
Type APP Name LANGEN RAD Frequency 125.6 MHZ
Type ATIS Name ATIS Frequency 136.35 MHZ
Type GND Name GND Frequency 121.975 MHZ
Type TWR Name TWR Frequency 119.65 MHZ

 AIRPORT NEAR NAVIGATION AIDS
Type NDB Name Hahn Frequency 376 KHZ
Type DME Name Hahn Frequency 116950 KHZ



Powered by Virtual Airlines Manager [v2.6.2]